Map

Track Data

SID SEASON NUMBER BASIN SUBBASIN NAME ISO_TIME NATURE LAT LON WMO_WIND WMO_PRES WMO_AGENCY TRACK_TYPE DIST2LAND LANDFALL IFLAG USA_AGENCY USA_ATCF_ID USA_LAT USA_LON USA_RECORD USA_STATUS USA_WIND USA_PRES USA_SSHS USA_R34_NE USA_R34_SE USA_R34_SW USA_R34_NW USA_R50_NE USA_R50_SE USA_R50_SW USA_R50_NW USA_R64_NE USA_R64_SE USA_R64_SW USA_R64_NW USA_POCI USA_ROCI USA_RMW USA_EYE TOKYO_LAT TOKYO_LON TOKYO_GRADE TOKYO_WIND TOKYO_PRES TOKYO_R50_DIR TOKYO_R50_LONG TOKYO_R50_SHORT TOKYO_R30_DIR TOKYO_R30_LONG TOKYO_R30_SHORT TOKYO_LAND CMA_LAT CMA_LON CMA_CAT CMA_WIND CMA_PRES HKO_LAT HKO_LON HKO_CAT HKO_WIND HKO_PRES NEWDELHI_LAT NEWDELHI_LON NEWDELHI_GRADE NEWDELHI_WIND NEWDELHI_PRES NEWDELHI_CI NEWDELHI_DP NEWDELHI_POCI REUNION_LAT REUNION_LON REUNION_TYPE REUNION_WIND REUNION_PRES REUNION_TNUM REUNION_CI REUNION_RMW REUNION_R34_NE REUNION_R34_SE REUNION_R34_SW REUNION_R34_NW REUNION_R50_NE REUNION_R50_SE REUNION_R50_SW REUNION_R50_NW REUNION_R64_NE REUNION_R64_SE REUNION_R64_SW REUNION_R64_NW BOM_LAT BOM_LON BOM_TYPE BOM_WIND BOM_PRES BOM_TNUM BOM_CI BOM_RMW BOM_R34_NE BOM_R34_SE BOM_R34_SW BOM_R34_NW BOM_R50_NE BOM_R50_SE BOM_R50_SW BOM_R50_NW BOM_R64_NE BOM_R64_SE BOM_R64_SW BOM_R64_NW BOM_ROCI BOM_POCI BOM_EYE BOM_POS_METHOD BOM_PRES_METHOD NADI_LAT NADI_LON NADI_CAT NADI_WIND NADI_PRES WELLINGTON_LAT WELLINGTON_LON WELLINGTON_WIND WELLINGTON_PRES DS824_LAT DS824_LON DS824_STAGE DS824_WIND DS824_PRES TD9636_LAT TD9636_LON TD9636_STAGE TD9636_WIND TD9636_PRES TD9635_LAT TD9635_LON TD9635_WIND TD9635_PRES TD9635_ROCI NEUMANN_LAT NEUMANN_LON NEUMANN_CLASS NEUMANN_WIND NEUMANN_PRES MLC_LAT MLC_LON MLC_CLASS MLC_WIND MLC_PRES USA_GUST BOM_GUST BOM_GUST_PER REUNION_GUST REUNION_GUST_PER USA_SEAHGT USA_SEARAD_NE USA_SEARAD_SE USA_SEARAD_SW USA_SEARAD_NW STORM_SPEED STORM_DIR
1970196N15252 1970 63 EP MM GRETCHEN 1970-07-14 12:00:00 TS 15.1000 -107.700 25 hurdat_epa main 552 552 O________OO___ hurdat_epa EP061970 15.1000 -107.700 TD 25 -1 15.1000 -107.700 TC 25 15.1000 -107.700 1 14 282
1970196N15252 1970 63 EP MM GRETCHEN 1970-07-14 15:00:00 TS 15.2443 -108.399 main 588 580 P________PP___ EP061970 15.2428 -108.390 TD 27 -1 15.2428 -108.390 TC 27 15.2505 -108.436 1 14 283
1970196N15252 1970 63 EP MM GRETCHEN 1970-07-14 18:00:00 TS 15.4020 -109.111 30 hurdat_epa main 623 623 O________OP___ hurdat_epa EP061970 15.4000 -109.100 TD 30 -1 15.4000 -109.100 TC 30 15.4098 -109.157 1 14 284
1970196N15252 1970 63 EP MM GRETCHEN 1970-07-14 21:00:00 TS 15.5859 -109.834 main 661 661 P________PP___ EP061970 15.5850 -109.830 TD 35 0 15.5850 -109.830 TC 35 15.5891 -109.850 1 14 287
1970196N15252 1970 63 EP MM GRETCHEN 1970-07-15 00:00:00 TS 15.8000 -110.500 40 hurdat_epa main 702 702 O________OO___ hurdat_epa EP061970 15.8000 -110.500 TS 40 0 15.8000 -110.500 TC 40 15.8000 -110.500 2 12 292
1970196N15252 1970 63 EP MM GRETCHEN 1970-07-15 03:00:00 TS 16.0490 -111.037 main 731 731 P________PP___ EP061970 16.0496 -111.023 TS 40 0 16.0496 -111.023 TC 40 16.0464 -111.095 2 11 297
1970196N15252 1970 63 EP MM GRETCHEN 1970-07-15 06:00:00 TS 16.3003 -111.528 40 hurdat_epa main 754 742 O________OP___ hurdat_epa EP061970 16.3000 -111.500 TS 40 0 16.3000 -111.500 TC 40 16.3016 -111.639 2 11 296
1970196N15252 1970 63 EP MM GRETCHEN 1970-07-15 09:00:00 TS 16.5303 -112.080 main 748 737 P________PP___ EP061970 16.5301 -112.065 TS 42 0 16.5301 -112.065 TC 42 16.5310 -112.139 2 11 291
1970196N15252 1970 63 EP MM GRETCHEN 1970-07-15 12:00:00 TS 16.7000 -112.600 45 hurdat_epa main 744 742 O________OO___ hurdat_epa EP061970 16.7000 -112.600 TS 45 0 16.7000 -112.600 TC 45 16.7000 -112.600 2 9 286
1970196N15252 1970 63 EP MM GRETCHEN 1970-07-15 15:00:00 TS 16.7843 -113.029 main 750 750 P________PP___ EP061970 16.7873 -113.023 TS 45 0 16.7873 -113.023 TC 45 16.7724 -113.053 2 8 277
1970196N15252 1970 63 EP MM GRETCHEN 1970-07-15 18:00:00 TS 16.7964 -113.414 45 1009 hurdat_epa main 769 769 O________OP___ hurdat_epa EP061970 16.8000 -113.400 TS 45 1009 0 16.8000 -113.400 TC 45 1009 16.7820 -113.468 2 8 268
1970196N15252 1970 63 EP MM GRETCHEN 1970-07-15 21:00:00 TS 16.7621 -113.822 main 789 789 P________PP___ EP061970 16.7650 -113.815 TS 45 0 16.7650 -113.815 TC 45 16.7506 -113.850 2 8 263
1970196N15252 1970 63 EP MM GRETCHEN 1970-07-16 00:00:00 TS 16.7000 -114.200 45 hurdat_epa main 820 820 O________OO___ hurdat_epa EP061970 16.7000 -114.200 TS 45 0 16.7000 -114.200 TC 45 16.7000 -114.200 2 7 261
1970196N15252 1970 63 EP MM GRETCHEN 1970-07-16 03:00:00 TS 16.6503 -114.521 main 837 837 P________PP___ EP061970 16.6499 -114.515 TS 45 0 16.6499 -114.515 TC 45 16.6520 -114.545 2 6 260
1970196N15252 1970 63 EP MM GRETCHEN 1970-07-16 06:00:00 TS 16.5985 -114.812 45 hurdat_epa main 865 865 O________OP___ hurdat_epa EP061970 16.6000 -114.800 TS 45 0 16.6000 -114.800 TC 45 16.5923 -114.860 2 6 259
1970196N15252 1970 63 EP MM GRETCHEN 1970-07-16 09:00:00 TS 16.5413 -115.121 main 892 892 P________PP___ EP061970 16.5425 -115.115 TS 45 0 16.5425 -115.115 TC 45 16.5364 -115.145 2 6 260
1970196N15252 1970 63 EP MM GRETCHEN 1970-07-16 12:00:00 TS 16.5000 -115.400 45 hurdat_epa main 911 911 O________OO___ hurdat_epa EP061970 16.5000 -115.400 TS 45 0 16.5000 -115.400 TC 45 16.5000 -115.400 2 5 263
1970196N15252 1970 63 EP MM GRETCHEN 1970-07-16 15:00:00 TS 16.4837 -115.620 main 924 924 P________PP___ EP061970 16.4849 -115.615 TS 45 0 16.4849 -115.615 TC 45 16.4789 -115.641 2 4 269
1970196N15252 1970 63 EP MM GRETCHEN 1970-07-16 18:00:00 TS 16.4965 -115.811 45 hurdat_epa main 938 938 O________OP___ hurdat_epa EP061970 16.5000 -115.800 TS 45 0 16.5000 -115.800 TC 45 16.4823 -115.853 2 4 275
1970196N15252 1970 63 EP MM GRETCHEN 1970-07-16 21:00:00 TS 16.5199 -116.020 main 952 950 P________PP___ EP061970 16.5200 -116.015 TS 45 0 16.5200 -116.015 TC 45 16.5196 -116.038 2 4 285
1970196N15252 1970 63 EP MM GRETCHEN 1970-07-17 00:00:00 TS 16.6000 -116.200 45 hurdat_epa main 957 948 O________OO___ hurdat_epa EP061970 16.6000 -116.200 TS 45 0 16.6000 -116.200 TC 45 16.6000 -116.200 2 4 312
1970196N15252 1970 63 EP MM GRETCHEN 1970-07-17 03:00:00 TS 16.7776 -116.315 main 948 939 P________PP___ EP061970 16.7850 -116.308 TS 45 0 16.7850 -116.308 TC 45 16.7480 -116.346 2 4 332
1970196N15252 1970 63 EP MM GRETCHEN 1970-07-17 06:00:00 TS 16.9870 -116.414 45 hurdat_epa main 939 930 O________OP___ hurdat_epa EP061970 17.0000 -116.400 TS 45 0 17.0000 -116.400 TC 45 16.9349 -116.472 2 4 330
1970196N15252 1970 63 EP MM GRETCHEN 1970-07-17 09:00:00 TS 17.1639 -116.551 main 938 930 P________PP___ EP061970 17.1725 -116.542 TS 45 0 17.1725 -116.542 TC 45 17.1293 -116.587 2 4 319
1970196N15252 1970 63 EP MM GRETCHEN 1970-07-17 12:00:00 TS 17.3000 -116.700 45 hurdat_epa main 938 938 O________OO___ hurdat_epa EP061970 17.3000 -116.700 TS 45 0 17.3000 -116.700 TC 45 17.3000 -116.700 2 4 305
1970196N15252 1970 63 EP MM GRETCHEN 1970-07-17 15:00:00 TS 17.3667 -116.851 main 946 946 P________PP___ EP061970 17.3575 -116.858 TS 45 0 17.3575 -116.858 TC 45 17.4037 -116.825 2 3 293
1970196N15252 1970 63 EP MM GRETCHEN 1970-07-17 18:00:00 TS 17.4160 -116.990 45 hurdat_epa main 954 947 O________OP___ hurdat_epa EP061970 17.4000 -117.000 TS 45 0 17.4000 -117.000 TC 45 17.4800 -116.950 2 3 300
1970196N15252 1970 63 EP MM GRETCHEN 1970-07-17 21:00:00 TS 17.5022 -117.101 main 955 953 P________PP___ EP061970 17.4925 -117.108 TS 45 0 17.4925 -117.108 TC 45 17.5412 -117.075 2 3 312
1970196N15252 1970 63 EP MM GRETCHEN 1970-07-18 00:00:00 TS 17.6000 -117.200 45 hurdat_epa main 953 944 O________OO___ hurdat_epa EP061970 17.6000 -117.200 TS 45 0 17.6000 -117.200 TC 45 17.6000 -117.200 2 3 316
1970196N15252 1970 63 EP MM GRETCHEN 1970-07-18 03:00:00 TS 17.7010 -117.299 main 950 946 P________PP___ EP061970 17.7075 -117.293 TS 45 0 17.7075 -117.293 TC 45 17.6750 -117.325 2 3 313
1970196N15252 1970 63 EP MM GRETCHEN 1970-07-18 06:00:00 TS 17.7900 -117.410 45 hurdat_epa main 946 946 O________OP___ hurdat_epa EP061970 17.8000 -117.400 TS 45 0 17.8000 -117.400 TC 45 17.7500 -117.450 2 3 302
1970196N15252 1970 63 EP MM GRETCHEN 1970-07-18 09:00:00 TS 17.8510 -117.555 main 949 949 P________PP___ EP061970 17.8575 -117.550 TS 45 0 17.8575 -117.550 TC 45 17.8250 -117.575 2 3 292
1970196N15252 1970 63 EP MM GRETCHEN 1970-07-18 12:00:00 TS 17.9000 -117.700 45 hurdat_epa main 956 956 O________OO___ hurdat_epa EP061970 17.9000 -117.700 TS 45 0 17.9000 -117.700 TC 45 17.9000 -117.700 2 3 292
1970196N15252 1970 63 EP MM GRETCHEN 1970-07-18 15:00:00 TS 17.9490 -117.806 main 962 953 P________PP___ EP061970 17.9425 -117.800 TS 42 0 17.9425 -117.800 TC 42 17.9750 -117.829 2 2 298
1970196N15252 1970 63 EP MM GRETCHEN 1970-07-18 18:00:00 TS 18.0100 -117.912 40 hurdat_epa main 959 957 O________OP___ hurdat_epa EP061970 18.0000 -117.900 TS 40 0 18.0000 -117.900 TC 40 18.0500 -117.958 2 3 303
1970196N15252 1970 63 EP MM GRETCHEN 1970-07-18 21:00:00 TS 18.1050 -118.056 main 964 955 P________PP___ EP061970 18.1000 -118.050 TS 40 0 18.1000 -118.050 TC 40 18.1250 -118.082 2 3 305
1970196N15252 1970 63 EP MM GRETCHEN 1970-07-19 00:00:00 TS 18.2000 -118.200 40 hurdat_epa main 962 960 O________OO___ hurdat_epa EP061970 18.2000 -118.200 TS 40 0 18.2000 -118.200 TC 40 18.2000 -118.200 2 3 302
1970196N15252 1970 63 EP MM GRETCHEN 1970-07-19 03:00:00 TS 18.2558 -118.308 main 960 960 P________PP___ EP061970 18.2500 -118.308 TS 40 0 18.2500 -118.308 TC 40 18.2790 -118.311 2 2 300
1970196N15252 1970 63 EP MM GRETCHEN 1970-07-19 06:00:00 TS 18.3115 -118.403 40 hurdat_epa main 967 959 O________OP___ hurdat_epa EP061970 18.3000 -118.400 TS 40 0 18.3000 -118.400 TC 40 18.3575 -118.415 2 2 309
1970196N15252 1970 63 EP MM GRETCHEN 1970-07-19 09:00:00 TS 18.4064 -118.508 main 966 964 P________PP___ EP061970 18.4000 -118.507 TS 40 0 18.4000 -118.507 TC 40 18.4322 -118.511 2 3 315
1970196N15252 1970 63 EP MM GRETCHEN 1970-07-19 12:00:00 TS 18.5000 -118.600 40 hurdat_epa main 964 956 O________OO___ hurdat_epa EP061970 18.5000 -118.600 TS 40 0 18.5000 -118.600 TC 40 18.5000 -118.600 2 2 317
1970196N15252 1970 63 EP MM GRETCHEN 1970-07-19 15:00:00 TS 18.5574 -118.653 main 964 964 P________PP___ EP061970 18.5575 -118.650 TS 40 0 18.5575 -118.650 TC 40 18.5571 -118.666 2 1 315
1970196N15252 1970 63 EP MM GRETCHEN 1970-07-19 18:00:00 TS 18.6015 -118.706 40 hurdat_epa main 964 964 O________OP___ hurdat_epa EP061970 18.6000 -118.700 TS 40 0 18.6000 -118.700 TC 40 18.6074 -118.728 2 2 305
1970196N15252 1970 63 EP MM GRETCHEN 1970-07-19 21:00:00 TS 18.6448 -118.788 main 971 963 P________PP___ EP061970 18.6425 -118.785 TS 37 0 18.6425 -118.785 TC 37 18.6540 -118.800 2 2 298
1970196N15252 1970 63 EP MM GRETCHEN 1970-07-20 00:00:00 TS 18.7000 -118.900 35 hurdat_epa main 970 970 O________OO___ hurdat_epa EP061970 18.7000 -118.900 TS 35 0 18.7000 -118.900 TC 35 18.7000 -118.900 2 3 304
1970196N15252 1970 63 EP MM GRETCHEN 1970-07-20 03:00:00 TS 18.7992 -119.036 main 970 970 P________PP___ EP061970 18.8075 -119.035 TS 35 0 18.8075 -119.035 TC 35 18.7663 -119.042 2 3 303
1970196N15252 1970 63 EP MM GRETCHEN 1970-07-20 06:00:00 TS 18.8860 -119.202 35 hurdat_epa main 977 977 O________OP___ hurdat_epa EP061970 18.9000 -119.200 TS 35 0 18.9000 -119.200 TC 35 18.8300 -119.212 2 4 289
1970196N15252 1970 63 EP MM GRETCHEN 1970-07-20 09:00:00 TS 18.9137 -119.394 main 993 993 P________PP___ EP061970 18.9225 -119.393 TS 32 -1 18.9225 -119.393 TC 32 18.8788 -119.401 2 4 272
1970196N15252 1970 63 EP MM GRETCHEN 1970-07-20 12:00:00 TS 18.9000 -119.600 30 hurdat_epa main 1008 1008 O________OO___ hurdat_epa EP061970 18.9000 -119.600 TD 30 -1 18.9000 -119.600 TC 30 18.9000 -119.600 6 4 262
1970196N15252 1970 63 EP MM GRETCHEN 1970-07-20 15:00:00 TS 18.8625 -119.798 main 1024 1024 P________PP___ EP061970 18.8575 -119.800 TD 27 -1 18.8575 -119.800 TC 27 18.8828 -119.789 6 4 256
1970196N15252 1970 63 EP MM GRETCHEN 1970-07-20 18:00:00 TS 18.8075 -119.997 25 hurdat_epa main 1047 1047 O________OP___ hurdat_epa EP061970 18.8000 -120.000 TD 25 -1 18.8000 -120.000 TC 25 18.8374 -119.985 6 4 254
1970196N15252 1970 63 EP MM GRETCHEN 1970-07-20 21:00:00 TS 18.7547 -120.198 main 1063 1063 P________PP___ EP061970 18.7500 -120.200 TD 25 -1 18.7500 -120.200 TC 25 18.7734 -120.189 6 4 254
1970196N15252 1970 63 EP MM GRETCHEN 1970-07-21 00:00:00 TS 18.7000 -120.400 25 hurdat_epa main 1086 1086 O________OO___ hurdat_epa EP061970 18.7000 -120.400 TD 25 -1 18.7000 -120.400 TC 25 18.7000 -120.400 6 4 255
1970196N15252 1970 63 EP MM GRETCHEN 1970-07-21 03:00:00 TS 18.6510 -120.598 main 1102 1102 P________PP___ EP061970 18.6575 -120.592 TD 25 -1 18.6575 -120.592 TC 25 18.6251 -120.618 6 4 254
1970196N15252 1970 63 EP MM GRETCHEN 1970-07-21 06:00:00 TS 18.5900 -120.809 25 hurdat_epa main 1126 1126 O________OP___ hurdat_epa EP061970 18.6000 -120.800 TD 25 -1 18.6000 -120.800 TC 25 18.5502 -120.843 6 5 251
1970196N15252 1970 63 EP MM GRETCHEN 1970-07-21 09:00:00 TS 18.5031 -121.046 main 1149 1149 P________PP___ EP061970 18.5101 -121.040 TD 25 -1 18.5101 -121.040 TC 25 18.4752 -121.070 6 5 248
1970196N15252 1970 63 EP MM GRETCHEN 1970-07-21 12:00:00 TS 18.4000 -121.300 25 hurdat_epa main 1181 O________OO___ hurdat_epa EP061970 18.4000 -121.300 TD 25 -1 18.4000 -121.300 TC 25 18.4000 -121.300 6 5 247

About IBTrACS Database

This database is a web-friendly format of International Best Track Archive for Climate Stewardship (IBTrACS), a global best track data archive curated by NOAA dating back to 1842.

Updated: 2021-10-08